createdAt,value
2022-11-24T00:01:32.750Z,99996.31
2022-11-24T00:04:06.601Z,100003.84
2022-11-24T00:06:36.811Z,100010.09
2022-11-24T00:09:07.711Z,100012.47
2022-11-24T00:11:37.440Z,100013.78
2022-11-24T00:14:07.584Z,100012.47
2022-11-24T00:16:38.525Z,99994.94
2022-11-24T00:19:14.584Z,100019.94
2022-11-24T00:21:48.670Z,100020.78
2022-11-24T00:24:19.248Z,100011.63
2022-11-24T00:26:47.920Z,100016.75
2022-11-24T00:29:17.577Z,100022.25
2022-11-24T00:31:46.705Z,100025.41
2022-11-24T00:34:18.119Z,100027.16
2022-11-24T00:36:47.523Z,100030.00
2022-11-24T00:39:17.313Z,100030.59
2022-11-24T00:41:47.344Z,100026.56
2022-11-24T00:44:16.065Z,100023.13
2022-11-24T00:46:44.819Z,100033.81
2022-11-24T00:49:15.992Z,100035.88
2022-11-24T00:51:44.704Z,100042.41
2022-11-24T00:54:13.405Z,100034.34
2022-11-24T00:56:44.509Z,100037.00
2022-11-24T00:59:17.049Z,100034.88
2022-11-24T01:01:46.379Z,100038.22
2022-11-24T01:04:15.071Z,100044.56
2022-11-24T01:06:43.968Z,100030.81
2022-11-24T01:09:13.707Z,100035.63
2022-11-24T01:12:02.444Z,100032.13
2022-11-24T01:14:34.155Z,100009.28
2022-11-24T01:17:03.091Z,100040.38
2022-11-24T01:19:31.873Z,100045.00
2022-11-24T01:22:00.559Z,100051.63
2022-11-24T01:24:29.338Z,100072.06
2022-11-24T01:27:00.281Z,100018.09
2022-11-24T01:29:29.286Z,100045.41
2022-11-24T01:31:59.359Z,100053.72
2022-11-24T01:34:28.193Z,100028.41
2022-11-24T01:36:56.876Z,100058.63
2022-11-24T01:39:25.575Z,100067.78
2022-11-24T01:41:54.836Z,100063.69
2022-11-24T01:44:25.404Z,99864.25
2022-11-24T01:46:58.767Z,100073.75
2022-11-24T01:49:39.417Z,100070.66
2022-11-24T01:52:13.053Z,100054.97
2022-11-24T01:54:47.222Z,100088.66
2022-11-24T01:57:20.590Z,100085.56
2022-11-24T01:59:52.837Z,100098.34
2022-11-24T02:02:29.677Z,100092.22
2022-11-24T02:05:04.949Z,100093.59
2022-11-24T02:07:34.335Z,100089.91
2022-11-24T02:10:09.391Z,100098.19
2022-11-24T02:12:39.792Z,100104.38
2022-11-24T02:15:11.865Z,100098.47
2022-11-24T02:17:42.987Z,100110.75
2022-11-24T02:20:14.564Z,100099.91
2022-11-24T02:22:52.611Z,100114.53
2022-11-24T02:25:28.404Z,100082.47
2022-11-24T02:28:01.026Z,100114.22
2022-11-24T02:30:29.917Z,100107.81
2022-11-24T02:32:58.923Z,100124.84
2022-11-24T02:35:28.335Z,100123.09
2022-11-24T02:37:59.252Z,100124.13
2022-11-24T02:40:31.112Z,100115.06
2022-11-24T02:43:10.554Z,100133.28
2022-11-24T02:45:39.269Z,100134.56
2022-11-24T02:48:08.739Z,100130.53
2022-11-24T02:50:38.329Z,100102.00
2022-11-24T02:53:09.431Z,100113.34
2022-11-24T02:55:40.202Z,100123.16
2022-11-24T02:58:10.442Z,100118.41
2022-11-24T03:00:41.603Z,100110.31
2022-11-24T03:03:10.516Z,100112.13
2022-11-24T03:05:39.485Z,100123.34
2022-11-24T03:08:11.258Z,100113.66
2022-11-24T03:10:40.509Z,100122.72
2022-11-24T03:13:15.498Z,100123.53
2022-11-24T03:15:44.258Z,100119.88
2022-11-24T03:18:12.973Z,100129.75
2022-11-24T03:20:41.922Z,100134.78
2022-11-24T03:23:10.564Z,100135.56
2022-11-24T03:25:42.295Z,100151.63
2022-11-24T03:28:13.091Z,100144.97
2022-11-24T03:30:43.214Z,100159.41
2022-11-24T03:33:11.924Z,100155.03
2022-11-24T03:35:41.463Z,100148.69
2022-11-24T03:38:10.310Z,100147.88
2022-11-24T03:40:38.978Z,100153.19
2022-11-24T03:43:08.120Z,100163.78
2022-11-24T03:45:52.387Z,100172.97
2022-11-24T03:48:22.879Z,100151.28
2022-11-24T03:50:56.515Z,100145.22
2022-11-24T03:53:26.956Z,100187.19
2022-11-24T03:55:56.468Z,100184.66
2022-11-24T03:58:27.407Z,100191.13
2022-11-24T04:00:58.609Z,100201.91
2022-11-24T04:03:28.813Z,100203.91
2022-11-24T04:05:57.932Z,100207.50
2022-11-24T04:08:26.730Z,100217.41
2022-11-24T04:10:59.578Z,100213.66
2022-11-24T04:13:27.764Z,100215.91
2022-11-24T04:15:56.882Z,100218.84
2022-11-24T04:18:25.645Z,100221.16
2022-11-24T04:20:55.825Z,100224.03
2022-11-24T04:23:24.622Z,100226.63
2022-11-24T04:25:53.255Z,100226.13
2022-11-24T04:28:22.162Z,100233.91
2022-11-24T04:30:51.109Z,100236.84
2022-11-24T04:33:19.805Z,100244.31
2022-11-24T04:35:48.609Z,100246.97
2022-11-24T04:39:23.849Z,100238.50
2022-11-24T04:41:10.728Z,100244.97
2022-11-24T04:43:40.879Z,100254.63
2022-11-24T04:46:12.934Z,100257.63
2022-11-24T04:48:42.993Z,100258.63
2022-11-24T04:51:11.917Z,100257.34
2022-11-24T04:53:42.461Z,100272.75
2022-11-24T04:56:11.511Z,100272.06
2022-11-24T04:58:40.141Z,100272.69
2022-11-24T05:01:09.531Z,100283.25
2022-11-24T05:03:38.195Z,100293.19
2022-11-24T05:06:08.883Z,100288.81
2022-11-24T05:08:37.898Z,100284.06
2022-11-24T05:11:08.805Z,100289.47
2022-11-24T05:13:37.683Z,100300.63
2022-11-24T05:16:09.852Z,100304.78
2022-11-24T05:18:39.044Z,100321.78
2022-11-24T05:21:07.852Z,100319.53
2022-11-24T05:23:37.113Z,100318.16
2022-11-24T05:26:07.857Z,100321.88
2022-11-24T05:28:38.254Z,100331.31
2022-11-24T05:31:10.039Z,100338.75
2022-11-24T05:33:39.199Z,100338.34
2022-11-24T05:36:08.976Z,100345.47
2022-11-24T05:38:40.252Z,100359.00
2022-11-24T05:41:12.843Z,100363.03
2022-11-24T05:43:42.307Z,100318.31
2022-11-24T05:46:11.086Z,100378.16
2022-11-24T05:48:40.113Z,100350.97
2022-11-24T05:51:09.512Z,100372.63
2022-11-24T05:53:38.761Z,100383.03
2022-11-24T05:56:08.360Z,100390.78
2022-11-24T05:58:41.414Z,100393.38
2022-11-24T06:01:10.153Z,100396.16
2022-11-24T06:03:38.858Z,100405.75
2022-11-24T06:06:08.321Z,100407.19
2022-11-24T06:08:37.453Z,100420.31
2022-11-24T06:11:18.565Z,100378.44
2022-11-24T06:13:49.650Z,100419.38
2022-11-24T06:16:18.708Z,100426.28
2022-11-24T06:18:48.951Z,100428.94
2022-11-24T06:21:18.736Z,100387.75
2022-11-24T06:23:49.853Z,100397.41
2022-11-24T06:26:19.464Z,100443.91
2022-11-24T06:28:50.614Z,100455.84
2022-11-24T06:31:23.069Z,100471.25
2022-11-24T06:33:53.313Z,100461.28
2022-11-24T06:36:25.678Z,100428.47
2022-11-24T06:38:56.410Z,100485.59
2022-11-24T06:41:26.414Z,100468.25
2022-11-24T06:43:58.424Z,100477.06
2022-11-24T06:46:30.681Z,100487.28
2022-11-24T06:49:00.918Z,100493.06
2022-11-24T06:51:30.833Z,100487.50
2022-11-24T06:54:08.409Z,100500.41
2022-11-24T06:56:38.368Z,100508.00
2022-11-24T06:59:16.754Z,100510.50
2022-11-24T07:01:53.298Z,100494.25
2022-11-24T07:04:23.338Z,100517.56
2022-11-24T07:06:53.538Z,100482.34
2022-11-24T07:09:24.223Z,100522.69
2022-11-24T07:11:57.259Z,100542.59
2022-11-24T07:14:29.069Z,100539.81
2022-11-24T07:16:58.960Z,100537.09
2022-11-24T07:19:29.211Z,100510.94
2022-11-24T07:22:02.255Z,100481.09
2022-11-24T07:24:31.709Z,100542.25
2022-11-24T07:27:01.701Z,100554.84
2022-11-24T07:29:33.751Z,100564.72
2022-11-24T07:32:05.811Z,100577.44
2022-11-24T07:34:35.611Z,100578.31
2022-11-24T07:37:05.227Z,100567.31
2022-11-24T07:39:34.949Z,100573.47
2022-11-24T07:42:05.274Z,100588.09
2022-11-24T07:44:36.123Z,100589.38
2022-11-24T07:47:06.239Z,100592.72
2022-11-24T07:49:37.247Z,100595.84
2022-11-24T07:52:06.421Z,100590.16
2022-11-24T07:54:35.404Z,100596.44
2022-11-24T07:57:04.359Z,100598.16
2022-11-24T07:59:36.572Z,100605.81
2022-11-24T08:02:05.286Z,100609.84
2022-11-24T08:04:38.135Z,100611.75
2022-11-24T08:07:07.570Z,100624.53
2022-11-24T08:09:36.304Z,100635.66
2022-11-24T08:12:06.537Z,100630.66
2022-11-24T08:14:37.738Z,100627.53
2022-11-24T08:17:10.396Z,100628.47
2022-11-24T08:19:42.722Z,100636.16
2022-11-24T08:22:14.672Z,100634.66
2022-11-24T08:24:48.035Z,100637.38
2022-11-24T08:27:21.288Z,100646.00
2022-11-24T08:29:52.954Z,100616.25
2022-11-24T08:32:22.869Z,100654.53
2022-11-24T08:34:59.481Z,100648.72
2022-11-24T08:37:34.117Z,100654.13
2022-11-24T08:40:04.127Z,100662.78
2022-11-24T08:42:33.776Z,100666.22
2022-11-24T08:45:23.042Z,100664.78
2022-11-24T08:47:57.925Z,100670.66
2022-11-24T08:50:28.157Z,100618.44
2022-11-24T08:52:57.724Z,100671.16
2022-11-24T08:55:27.218Z,100673.03
2022-11-24T08:57:56.231Z,100679.06
2022-11-24T09:00:24.968Z,100677.81
2022-11-24T09:02:59.665Z,100686.19
2022-11-24T09:05:51.325Z,100692.28
2022-11-24T09:08:18.059Z,100690.78
2022-11-24T09:10:46.787Z,100696.56
2022-11-24T09:13:16.321Z,100702.25
2022-11-24T09:15:45.252Z,100698.34
2022-11-24T09:18:15.641Z,100703.28
2022-11-24T09:20:44.642Z,100711.75
2022-11-24T09:23:14.727Z,100701.19
2022-11-24T09:25:43.564Z,100706.13
2022-11-24T09:28:13.233Z,100721.38
2022-11-24T09:30:45.099Z,100722.41
2022-11-24T09:33:15.617Z,100715.22
2022-11-24T09:35:44.560Z,100720.53
2022-11-24T09:38:16.330Z,100722.81
2022-11-24T09:40:45.090Z,100733.97
2022-11-24T09:43:21.168Z,100742.47
2022-11-24T09:46:05.465Z,100748.25
2022-11-24T09:48:39.936Z,100737.09
2022-11-24T09:51:13.361Z,100765.47
2022-11-24T09:53:47.919Z,100764.22
2022-11-24T09:56:22.109Z,100765.84
2022-11-24T09:58:53.193Z,100768.91
2022-11-24T10:01:25.835Z,100770.06
2022-11-24T10:04:02.606Z,100769.78
2022-11-24T10:06:42.055Z,100771.22
2022-11-24T10:09:30.499Z,100773.81
2022-11-24T10:12:17.338Z,100770.06
2022-11-24T10:15:01.668Z,100682.47
2022-11-24T10:17:45.530Z,100772.00
2022-11-24T10:20:22.970Z,100769.75
2022-11-24T10:23:10.552Z,100784.78
2022-11-24T10:25:49.588Z,100778.38
2022-11-24T10:28:21.350Z,100792.59
2022-11-24T10:30:51.007Z,100789.88
2022-11-24T10:33:30.326Z,100790.19
2022-11-24T10:36:10.118Z,100790.66
2022-11-24T10:38:45.317Z,100795.78
2022-11-24T10:41:19.737Z,100794.06
2022-11-24T10:43:48.467Z,100796.59
2022-11-24T10:46:23.038Z,100791.25
2022-11-24T10:48:54.775Z,100791.91
2022-11-24T10:51:47.800Z,100807.09
2022-11-24T10:54:20.674Z,100811.03
2022-11-24T10:56:52.606Z,100812.19
2022-11-24T10:59:30.329Z,100805.16
2022-11-24T11:01:59.731Z,100807.91
2022-11-24T11:04:31.055Z,100815.91
2022-11-24T11:07:18.763Z,100812.06
2022-11-24T11:09:49.097Z,100804.84
2022-11-24T11:15:24.811Z,100802.91
2022-11-24T11:17:59.895Z,100796.63
2022-11-24T11:20:35.412Z,100797.47
2022-11-24T11:23:16.975Z,100772.09
2022-11-24T11:25:46.222Z,100805.25
2022-11-24T11:28:26.485Z,100813.09
2022-11-24T11:31:19.841Z,100783.09
2022-11-24T11:34:07.281Z,100803.09
2022-11-24T11:36:45.055Z,100806.03
2022-11-24T11:39:26.243Z,100793.06
2022-11-24T11:42:08.346Z,100809.59
2022-11-24T11:44:41.511Z,100810.44
2022-11-24T11:47:18.874Z,100805.38
2022-11-24T11:49:50.773Z,100802.25
2022-11-24T11:53:01.692Z,100805.91
2022-11-24T11:55:48.169Z,100801.53
2022-11-24T11:58:45.788Z,100801.84
2022-11-24T12:01:33.101Z,100815.00
2022-11-24T12:04:21.366Z,100806.72
2022-11-24T12:07:00.938Z,100811.94
2022-11-24T12:09:45.151Z,100822.19
2022-11-24T12:12:33.688Z,100824.81
2022-11-24T12:15:13.454Z,100789.88
2022-11-24T12:17:49.824Z,100821.16
2022-11-24T12:20:32.525Z,100808.59
2022-11-24T12:23:11.557Z,100820.06
2022-11-24T12:25:49.045Z,100820.84
2022-11-24T12:28:34.473Z,100817.84
2022-11-24T12:31:07.797Z,100813.06
2022-11-24T12:34:16.824Z,100813.31
2022-11-24T12:37:01.441Z,100817.63
2022-11-24T12:39:37.328Z,100820.19
2022-11-24T12:42:14.039Z,100797.47
2022-11-24T12:45:06.114Z,100823.72
2022-11-24T12:47:58.941Z,100823.41
2022-11-24T12:50:30.603Z,100825.59
2022-11-24T12:53:05.899Z,100834.72
2022-11-24T12:55:35.052Z,100820.91
2022-11-24T12:58:11.686Z,100822.84
2022-11-24T13:00:58.925Z,100820.56
2022-11-24T13:03:42.641Z,100819.56
2022-11-24T13:06:15.521Z,100814.59
2022-11-24T13:08:45.225Z,100821.09
2022-11-24T13:11:38.048Z,100831.09
2022-11-24T13:14:16.825Z,100829.34
2022-11-24T13:19:45.021Z,100825.34
2022-11-24T13:22:19.768Z,100832.94
2022-11-24T13:25:13.459Z,100831.06
2022-11-24T13:27:45.245Z,100818.91
2022-11-24T13:30:59.498Z,100830.75
2022-11-24T13:33:32.920Z,100731.47
2022-11-24T13:36:31.040Z,100820.97
2022-11-24T13:39:02.788Z,100822.22
2022-11-24T13:42:09.479Z,100825.53
2022-11-24T13:44:49.586Z,100825.38
2022-11-24T13:47:37.577Z,100819.56
2022-11-24T13:50:15.629Z,100817.16
2022-11-24T13:52:49.190Z,100814.47
2022-11-24T13:55:25.808Z,100812.53
2022-11-24T13:57:59.555Z,100822.94
2022-11-24T14:00:32.065Z,100824.41
2022-11-24T14:03:04.872Z,100814.31
2022-11-24T14:05:41.485Z,100824.28
2022-11-24T14:08:20.462Z,100824.78
2022-11-24T14:10:49.922Z,100822.25
2022-11-24T14:13:30.154Z,100788.59
2022-11-24T14:16:13.879Z,100724.72
2022-11-24T14:18:44.290Z,100819.78
2022-11-24T14:21:27.158Z,100803.03
2022-11-24T14:23:59.904Z,100815.38
2022-11-24T14:26:34.192Z,100813.28
2022-11-24T14:29:08.356Z,100803.78
2022-11-24T14:31:37.592Z,100793.22
2022-11-24T14:34:16.144Z,100794.88
2022-11-24T14:36:46.575Z,100793.25
2022-11-24T14:39:19.409Z,100788.97
2022-11-24T14:41:53.515Z,100800.63
2022-11-24T14:44:25.243Z,100794.03
2022-11-24T14:47:03.557Z,100796.81
2022-11-24T14:49:35.498Z,100802.34
2022-11-24T14:52:14.125Z,100796.06
2022-11-24T14:54:48.957Z,100802.81
2022-11-24T14:57:27.094Z,100827.41
2022-11-24T15:00:17.006Z,100805.03
2022-11-24T15:02:48.532Z,100816.34
2022-11-24T15:05:17.855Z,100811.72
2022-11-24T15:07:52.955Z,100818.94
2022-11-24T15:10:33.577Z,100812.22
2022-11-24T15:13:06.636Z,100808.34
2022-11-24T15:15:38.180Z,100736.31
2022-11-24T15:18:07.950Z,100830.75
2022-11-24T15:20:41.771Z,100812.28
2022-11-24T15:23:23.488Z,100798.22
2022-11-24T15:25:53.334Z,100818.31
2022-11-24T15:28:25.712Z,100817.00
2022-11-24T15:30:55.616Z,100809.03
2022-11-24T15:33:25.058Z,100803.22
2022-11-24T15:35:54.174Z,100750.84
2022-11-24T15:38:24.371Z,100797.09
2022-11-24T15:40:55.980Z,100780.41
2022-11-24T15:43:31.935Z,100796.97
2022-11-24T15:46:01.647Z,100809.81
2022-11-24T15:48:31.143Z,100807.72
2022-11-24T15:51:02.578Z,100804.34
2022-11-24T15:53:35.663Z,100808.84
2022-11-24T15:56:07.280Z,100804.84
2022-11-24T15:58:36.043Z,100797.53
2022-11-24T16:01:05.479Z,100810.97
2022-11-24T16:03:47.112Z,100812.97
2022-11-24T16:06:24.688Z,100810.06
2022-11-24T16:08:59.234Z,100802.53
2022-11-24T16:11:28.247Z,100817.13
2022-11-24T16:13:57.166Z,100819.25
2022-11-24T16:16:30.652Z,100816.81
2022-11-24T16:19:00.266Z,100819.78
2022-11-24T16:21:29.508Z,100822.59
2022-11-24T16:23:59.629Z,100822.66
2022-11-24T16:26:28.738Z,100823.34
2022-11-24T16:28:58.169Z,100827.53
2022-11-24T16:31:28.927Z,100819.66
2022-11-24T16:33:57.546Z,100825.91
2022-11-24T16:36:26.793Z,100818.72
2022-11-24T16:38:56.027Z,100817.97
2022-11-24T16:41:26.390Z,100824.66
2022-11-24T16:43:55.101Z,100815.97
2022-11-24T16:46:25.404Z,100822.31
2022-11-24T16:48:56.046Z,100817.56
2022-11-24T16:51:29.899Z,100817.44
2022-11-24T16:54:03.673Z,100816.25
2022-11-24T16:56:34.356Z,100779.34
2022-11-24T16:59:03.580Z,100802.84
2022-11-24T17:01:32.828Z,100802.88
2022-11-24T17:04:08.206Z,100773.91
2022-11-24T17:06:44.716Z,100790.81
2022-11-24T17:09:13.694Z,100801.16
2022-11-24T17:11:44.088Z,100810.69
2022-11-24T17:14:14.791Z,100809.66
2022-11-24T17:16:43.548Z,100804.47
2022-11-24T17:19:13.007Z,100805.06
2022-11-24T17:21:41.742Z,100797.44
2022-11-24T17:24:17.617Z,100789.28
2022-11-24T17:26:50.458Z,100771.59
2022-11-24T17:29:19.253Z,100779.63
2022-11-24T17:31:50.474Z,100793.06
2022-11-24T17:34:21.692Z,100780.25
2022-11-24T17:36:50.843Z,100787.03
2022-11-24T17:39:24.514Z,100784.84
2022-11-24T17:41:55.084Z,100785.28
2022-11-24T17:44:24.356Z,100781.84
2022-11-24T17:46:53.475Z,100773.16
2022-11-24T17:49:24.642Z,100783.59
2022-11-24T17:51:53.291Z,100779.53
2022-11-24T17:54:45.540Z,100799.28
2022-11-24T17:57:12.191Z,100781.50
2022-11-24T17:59:40.898Z,100763.03
2022-11-24T18:02:10.955Z,100782.41
2022-11-24T18:04:39.773Z,100784.84
2022-11-24T18:07:11.403Z,100781.84
2022-11-24T18:09:40.290Z,100790.66
2022-11-24T18:12:09.476Z,100777.19
2022-11-24T18:14:40.026Z,100777.69
2022-11-24T18:17:10.279Z,100785.88
2022-11-24T18:19:39.056Z,100776.16
2022-11-24T18:22:08.414Z,100647.06
2022-11-24T18:24:40.524Z,100785.84
2022-11-24T18:27:10.362Z,100788.63
2022-11-24T18:29:40.571Z,100783.22
2022-11-24T18:32:09.568Z,100775.59
2022-11-24T18:34:38.265Z,100780.63
2022-11-24T18:37:08.737Z,100779.94
2022-11-24T18:39:37.454Z,100774.63
2022-11-24T18:42:07.456Z,100779.34
2022-11-24T18:44:36.582Z,100779.47
2022-11-24T18:47:07.988Z,100777.19
2022-11-24T18:49:36.611Z,100763.97
2022-11-24T18:52:05.869Z,100777.91
2022-11-24T18:54:35.478Z,100776.56
2022-11-24T18:57:05.371Z,100776.06
2022-11-24T18:59:36.969Z,100772.88
2022-11-24T19:02:12.339Z,100771.97
2022-11-24T19:04:41.234Z,100768.66
2022-11-24T19:07:10.466Z,100763.66
2022-11-24T19:09:39.203Z,100765.16
2022-11-24T19:12:10.393Z,100760.75
2022-11-24T19:14:41.665Z,100756.25
2022-11-24T19:17:11.925Z,100757.09
2022-11-24T19:19:40.676Z,100756.25
2022-11-24T19:22:10.057Z,100746.31
2022-11-24T19:24:41.625Z,100755.03
2022-11-24T19:27:10.779Z,100757.41
2022-11-24T19:29:43.053Z,100752.63
2022-11-24T19:32:16.948Z,100748.47
2022-11-24T19:34:46.340Z,100759.63
2022-11-24T19:37:15.286Z,100756.84
2022-11-24T19:39:43.956Z,100754.06
2022-11-24T19:42:13.458Z,100764.84
2022-11-24T19:44:42.193Z,100760.50
2022-11-24T19:47:13.087Z,100760.50
2022-11-24T19:49:43.199Z,100760.75
2022-11-24T19:52:12.445Z,100747.84
2022-11-24T19:54:41.371Z,100762.09
2022-11-24T19:57:10.485Z,100761.69
2022-11-24T19:59:39.450Z,100761.81
2022-11-24T20:02:08.427Z,100766.66
2022-11-24T20:04:39.827Z,100758.81
2022-11-24T20:07:11.137Z,100746.91
2022-11-24T20:09:39.924Z,100751.09
2022-11-24T20:12:09.921Z,100750.28
2022-11-24T20:14:38.817Z,100737.50
2022-11-24T20:17:07.950Z,100744.56
2022-11-24T20:19:36.647Z,100739.72
2022-11-24T20:22:06.405Z,100739.88
2022-11-24T20:24:37.154Z,100746.66
2022-11-24T20:27:06.471Z,100738.69
2022-11-24T20:29:35.123Z,100740.22
2022-11-24T20:32:03.834Z,100734.19
2022-11-24T20:34:33.051Z,100732.66
2022-11-24T20:37:03.507Z,100742.81
2022-11-24T20:39:36.636Z,100733.38
2022-11-24T20:42:05.930Z,100739.19
2022-11-24T20:44:37.736Z,100735.06
2022-11-24T20:47:09.470Z,100747.88
2022-11-24T20:49:40.410Z,100747.03
2022-11-24T20:52:09.129Z,100739.59
2022-11-24T20:54:39.920Z,100756.19
2022-11-24T20:57:09.107Z,100627.00
2022-11-24T20:59:39.740Z,100748.59
2022-11-24T21:02:12.556Z,100740.97
2022-11-24T21:04:41.540Z,100731.56
2022-11-24T21:07:13.511Z,100731.47
2022-11-24T21:09:43.817Z,100735.78
2022-11-24T21:12:13.353Z,100743.47
2022-11-24T21:14:42.657Z,100739.63
2022-11-24T21:17:12.552Z,100743.94
2022-11-24T21:19:42.045Z,100730.06
2022-11-24T21:22:11.427Z,100709.22
2022-11-24T21:24:40.539Z,100740.31
2022-11-24T21:27:10.822Z,100737.50
2022-11-24T21:29:42.198Z,100745.00
2022-11-24T21:32:11.170Z,100727.09
2022-11-24T21:34:40.606Z,100739.91
2022-11-24T21:37:09.507Z,100624.34
2022-11-24T21:39:38.284Z,100737.22
2022-11-24T21:42:07.575Z,100740.13
2022-11-24T21:44:37.692Z,100735.19
2022-11-24T21:47:06.899Z,100735.34
2022-11-24T21:49:35.878Z,100718.97
2022-11-24T21:52:04.805Z,100723.50
2022-11-24T21:54:33.645Z,100731.50
2022-11-24T21:57:02.684Z,100732.22
2022-11-24T21:59:31.567Z,100714.63
2022-11-24T22:02:01.996Z,100715.31
2022-11-24T22:04:30.748Z,100725.31
2022-11-24T22:07:02.506Z,100727.47
2022-11-24T22:09:33.926Z,100735.56
2022-11-24T22:12:03.367Z,100722.88
2022-11-24T22:14:37.461Z,100721.56
2022-11-24T22:17:10.718Z,100722.59
2022-11-24T22:19:39.381Z,100731.59
2022-11-24T22:22:08.574Z,100724.88
2022-11-24T22:24:37.645Z,100723.81
2022-11-24T22:27:06.480Z,100726.03
2022-11-24T22:29:35.142Z,100722.31
2022-11-24T22:32:08.202Z,100692.00
2022-11-24T22:34:38.979Z,100721.97
2022-11-24T22:37:09.318Z,100718.38
2022-11-24T22:39:38.799Z,100584.72
2022-11-24T22:42:08.028Z,100715.53
2022-11-24T22:44:38.830Z,100723.25
2022-11-24T22:47:08.338Z,100726.31
2022-11-24T22:49:39.477Z,100744.25
2022-11-24T22:52:09.332Z,100723.91
2022-11-24T22:54:38.986Z,100721.31
2022-11-24T22:57:09.483Z,100722.03
2022-11-24T22:59:38.663Z,100729.63
2022-11-24T23:02:08.017Z,100724.34
2022-11-24T23:04:38.805Z,100625.97
2022-11-24T23:07:08.242Z,100716.13
2022-11-24T23:09:37.544Z,100696.63
2022-11-24T23:12:07.400Z,100725.34
2022-11-24T23:14:36.670Z,100719.81
2022-11-24T23:17:06.993Z,100720.38
2022-11-24T23:19:36.345Z,100711.16
2022-11-24T23:22:07.806Z,100720.53
2022-11-24T23:24:40.449Z,100714.63
2022-11-24T23:27:10.736Z,100720.13
2022-11-24T23:29:40.828Z,100710.25
2022-11-24T23:32:11.891Z,100723.00
2022-11-24T23:34:46.040Z,100715.09
2022-11-24T23:37:17.488Z,100718.38
2022-11-24T23:39:48.415Z,100710.78
2022-11-24T23:42:18.447Z,100709.72
2022-11-24T23:44:50.867Z,100711.78
2022-11-24T23:47:20.635Z,100707.91
2022-11-24T23:49:51.910Z,100713.53
2022-11-24T23:52:22.965Z,100705.06
2022-11-24T23:54:52.481Z,100706.56
2022-11-24T23:57:24.205Z,100696.06
2022-11-24T23:59:53.399Z,100709.22
